createdAt,value
2023-02-02T00:02:26.785Z,13.43
2023-02-02T00:12:31.488Z,8.73
2023-02-02T00:22:35.701Z,12.50
2023-02-02T00:32:37.966Z,11.27
2023-02-02T00:42:40.142Z,11.50
2023-02-02T00:52:44.519Z,15.60
2023-02-02T01:02:51.451Z,16.47
2023-02-02T01:12:55.910Z,15.30
2023-02-02T01:22:59.109Z,10.50
2023-02-02T01:33:03.460Z,11.33
2023-02-02T01:43:22.424Z,11.03
2023-02-02T01:53:26.816Z,11.80
2023-02-02T02:03:37.272Z,11.40
2023-02-02T02:14:03.707Z,14.13
2023-02-02T02:24:34.087Z,13.57
2023-02-02T02:34:41.624Z,9.60
2023-02-02T02:44:44.286Z,10.50
2023-02-02T02:54:52.290Z,9.13
2023-02-02T03:05:20.342Z,12.67
2023-02-02T03:15:27.413Z,15.63
2023-02-02T03:25:32.049Z,14.17
2023-02-02T03:35:37.520Z,21.20
2023-02-02T03:45:46.332Z,19.67
2023-02-02T03:55:52.902Z,20.47
2023-02-02T04:05:57.456Z,15.67
2023-02-02T04:16:00.269Z,17.93
2023-02-02T04:26:07.194Z,16.40
2023-02-02T04:36:09.291Z,18.07
2023-02-02T04:46:11.559Z,16.07
2023-02-02T04:56:19.394Z,15.33
2023-02-02T05:06:21.414Z,13.70
2023-02-02T05:16:24.102Z,14.17
2023-02-02T05:26:26.992Z,14.47
2023-02-02T05:36:29.307Z,12.83
2023-02-02T05:46:31.681Z,10.83
2023-02-02T05:56:36.149Z,10.17
2023-02-02T06:06:44.297Z,15.00
2023-02-02T06:16:49.091Z,18.97
2023-02-02T06:26:53.382Z,9.87
2023-02-02T06:36:55.680Z,20.90
2023-02-02T06:46:57.668Z,14.80
2023-02-02T06:56:59.827Z,12.27
2023-02-02T07:07:02.311Z,14.43
2023-02-02T07:17:06.553Z,12.07
2023-02-02T07:27:08.564Z,12.67
2023-02-02T07:37:10.872Z,14.23
2023-02-02T07:47:20.162Z,12.80
2023-02-02T07:57:22.356Z,11.77
2023-02-02T08:07:26.638Z,12.57
2023-02-02T08:17:31.714Z,9.20
2023-02-02T08:27:37.870Z,13.30
2023-02-02T08:37:44.850Z,7.30
2023-02-02T08:47:47.056Z,7.43
2023-02-02T08:57:52.354Z,6.50
2023-02-02T09:07:59.648Z,6.27
2023-02-02T09:18:04.288Z,7.93
2023-02-02T09:28:14.276Z,8.50
2023-02-02T09:38:19.535Z,6.80
2023-02-02T09:48:45.210Z,8.80
2023-02-02T09:58:54.864Z,7.90
2023-02-02T10:09:22.900Z,11.83
2023-02-02T10:19:31.000Z,9.17
2023-02-02T10:29:59.940Z,10.30
2023-02-02T10:40:27.476Z,10.03
2023-02-02T10:50:32.477Z,8.77
2023-02-02T11:00:51.813Z,6.53
2023-02-02T11:10:55.488Z,6.07
2023-02-02T11:21:00.797Z,6.63
2023-02-02T11:31:07.822Z,7.43
2023-02-02T11:41:13.297Z,9.37
2023-02-02T11:51:25.351Z,14.57
2023-02-02T12:01:29.730Z,11.87
2023-02-02T12:11:58.202Z,9.37
2023-02-02T12:22:03.322Z,15.83
2023-02-02T12:32:35.023Z,10.50
2023-02-02T12:42:56.021Z,11.67
2023-02-02T12:53:04.745Z,14.47
2023-02-02T13:03:30.684Z,8.07
2023-02-02T13:13:41.680Z,9.30
2023-02-02T13:23:52.621Z,6.17
2023-02-02T13:34:16.144Z,5.83
2023-02-02T13:44:24.693Z,8.60
2023-02-02T13:54:58.370Z,8.37
2023-02-02T14:05:04.257Z,6.93
2023-02-02T14:15:07.363Z,6.73
2023-02-02T14:25:40.582Z,4.20
2023-02-02T14:35:46.697Z,8.07
2023-02-02T14:46:22.506Z,4.97
2023-02-02T14:56:50.461Z,5.37
2023-02-02T15:06:55.840Z,5.27
2023-02-02T15:17:12.736Z,6.30
2023-02-02T15:27:23.296Z,5.33
2023-02-02T15:37:36.181Z,1.87
2023-02-02T15:47:42.485Z,2.20
2023-02-02T15:57:47.786Z,3.90
2023-02-02T16:08:03.688Z,4.90
2023-02-02T16:18:15.023Z,6.03
2023-02-02T16:28:27.331Z,3.73
2023-02-02T16:38:39.741Z,3.53
2023-02-02T16:48:46.947Z,4.00
2023-02-02T16:58:49.055Z,4.07
2023-02-02T17:08:51.301Z,4.03
2023-02-02T17:18:55.680Z,7.77
2023-02-02T17:29:00.811Z,4.07
2023-02-02T17:39:07.980Z,3.43
2023-02-02T17:49:10.855Z,5.97
2023-02-02T17:59:17.381Z,4.87
2023-02-02T18:09:24.576Z,7.73
2023-02-02T18:19:26.833Z,6.13
2023-02-02T18:29:33.542Z,6.30
2023-02-02T18:39:39.890Z,10.00
2023-02-02T18:49:41.985Z,5.60
2023-02-02T18:59:44.457Z,5.83
2023-02-02T19:09:49.356Z,5.57
2023-02-02T19:19:51.688Z,5.73
2023-02-02T19:30:00.505Z,4.37
2023-02-02T19:40:16.403Z,5.33
2023-02-02T19:50:24.535Z,5.27
2023-02-02T20:00:29.368Z,5.57
2023-02-02T20:10:37.787Z,6.93
2023-02-02T20:20:44.882Z,6.50
2023-02-02T20:30:49.603Z,5.00
2023-02-02T20:40:52.316Z,4.77
2023-02-02T20:50:54.692Z,9.60
2023-02-02T21:00:56.831Z,4.37
2023-02-02T21:11:01.949Z,4.07
2023-02-02T21:21:09.055Z,3.73
2023-02-02T21:31:13.085Z,6.80
2023-02-02T21:41:16.902Z,5.90
2023-02-02T21:51:29.980Z,5.60
2023-02-02T22:01:39.920Z,4.93
2023-02-02T22:11:59.411Z,7.90
2023-02-02T22:22:13.892Z,8.20
2023-02-02T22:32:20.681Z,7.70
2023-02-02T22:42:26.561Z,10.07
2023-02-02T22:52:28.721Z,7.93
2023-02-02T23:02:33.379Z,6.60
2023-02-02T23:12:35.461Z,7.37
2023-02-02T23:22:40.089Z,4.67
2023-02-02T23:32:48.032Z,8.17
2023-02-02T23:42:52.741Z,5.40
2023-02-02T23:52:59.628Z,5.83
